Derby Field Lovelock US
ICAO: KLOL
IATA: LOL
Category: Medium
Scheduled Services: No

Elevation: 3904 ft
TransAlt. 18000 ft.

Airport Communications:
ASOS:120.675
OAKLAND CNTR:128.8
RENO RDO:122.4
CTAF/UNICOM:122.8

KLOL Zoom In..

If you have problems with the map follow the link
https://www.worldairports.se/pages/airport.php?
ICAO=KLOL

Runways:

(A) RW 02 length 5529 ft width 75 ft
---- / hdg 16

(B) RW 08 length 4931 ft width 75 ft
---- / hdg 76

(C) RW 20 length 5529 ft width 75 ft
---- / hdg 196

(D) RW 26 length 4931 ft width 75 ft
---- / hdg 256

Location; KLOL
Day. 13 / Time. 19.53 Zulu
* Altimeter: 30.06
* Temperature: 08° c. 46.4°f.
* Wind from: 150° Speed 06 kn.
Dewpoint: 03° c.
Visibility: 10 Statute Miles.
Clouds: Few 5500 ft.
Clouds: Broken 11000 ft.

KLOL 131953Z AUTO 15006KT 10SM FEW055 BKN110 08/03 A3006 RMK AO2 SLP182 T00830033


Wind From 150°
Speed 06 kn.

 
 
jpsmedia worldairports.se 2019   terms of use